Time;durP1;ratioP1;P1;durP2;ratioP2;P2;SDS_P1;SDS_P2;PMS_P1;PMS_P2;Temp;Humidity;BMP_temperature;BMP_pressure;BME280_temperature;BME280_humidity;BME280_pressure;Samples;Min_cycle;Max_cycle;Signal;HPM_P1;HPM_P2
2024/03/19 00:00:24;;;;;;;3.22;0.68;;;;;;;;;;5072012;28;20075;-59
2024/03/19 00:02:49;;;;;;;1.88;0.73;;;;;;;;;;5071703;28;20056;-60
2024/03/19 00:05:14;;;;;;;1.95;0.70;;;;;;;;;;5072106;28;20459;-59
2024/03/19 00:07:40;;;;;;;4.95;0.90;;;;;;;;;;5071571;28;20538;-60
2024/03/19 00:10:06;;;;;;;1.92;0.50;;;;;;;;;;5071454;28;20047;-59
2024/03/19 00:12:32;;;;;;;2.22;0.85;;;;;;;;;;5071860;28;20072;-59
2024/03/19 00:14:59;;;;;;;2.80;0.80;;;;;;;;;;5071955;28;20067;-58
2024/03/19 00:17:25;;;;;;;1.27;0.63;;;;;;;;;;5071348;28;20028;-54
2024/03/19 00:19:50;;;;;;;2.95;0.88;;;;;;;;;;5071311;28;20049;-55
2024/03/19 00:22:15;;;;;;;3.83;0.68;;;;;;;;;;5071208;28;20115;-57
2024/03/19 00:24:41;;;;;;;1.20;0.60;;;;;;;;;;5070883;28;20032;-55
2024/03/19 00:27:06;;;;;;;1.45;0.70;;;;;;;;;;5071583;28;20052;-56
2024/03/19 00:29:32;;;;;;;1.10;0.60;;;;;;;;;;5071279;28;20075;-57
2024/03/19 00:31:57;;;;;;;1.83;0.68;;;;;;;;;;5071122;28;20044;-56
2024/03/19 00:34:22;;;;;;;1.15;0.63;;;;;;;;;;5071155;28;20129;-54
2024/03/19 00:36:48;;;;;;;3.65;0.65;;;;;;;;;;5071200;28;20113;-56
2024/03/19 00:39:13;;;;;;;1.52;0.70;;;;;;;;;;5070907;28;20379;-56
2024/03/19 00:41:39;;;;;;;1.70;0.75;;;;;;;;;;5070954;28;20476;-55
2024/03/19 00:44:05;;;;;;;1.55;0.60;;;;;;;;;;5071211;28;20050;-54
2024/03/19 00:46:34;;;;;;;1.95;0.70;;;;;;;;;;5071153;28;20090;-54
2024/03/19 00:49:01;;;;;;;1.92;0.68;;;;;;;;;;5060892;28;20128;-54
2024/03/19 00:51:26;;;;;;;1.40;0.60;;;;;;;;;;5071231;28;20040;-52
2024/03/19 00:53:52;;;;;;;1.77;0.68;;;;;;;;;;5070521;28;20033;-54
2024/03/19 00:56:17;;;;;;;0.90;0.40;;;;;;;;;;5070485;28;20036;-54
2024/03/19 00:58:42;;;;;;;2.67;0.50;;;;;;;;;;5070890;28;20039;-52
2024/03/19 01:01:08;;;;;;;2.33;0.60;;;;;;;;;;5070495;28;20020;-51
2024/03/19 01:03:33;;;;;;;1.05;0.50;;;;;;;;;;5070671;28;20059;-53
2024/03/19 01:06:00;;;;;;;2.42;0.70;;;;;;;;;;5070165;28;20068;-53
2024/03/19 01:08:25;;;;;;;5.97;0.73;;;;;;;;;;5071010;28;20089;-55
2024/03/19 01:10:51;;;;;;;1.58;0.60;;;;;;;;;;5070361;28;20040;-55
2024/03/19 01:13:16;;;;;;;1.80;0.73;;;;;;;;;;5070194;28;20036;-56
2024/03/19 01:15:42;;;;;;;1.33;0.60;;;;;;;;;;5069191;28;20085;-54
2024/03/19 01:18:07;;;;;;;1.38;0.50;;;;;;;;;;5070599;28;20123;-50
2024/03/19 01:20:32;;;;;;;4.18;0.60;;;;;;;;;;5067677;28;20072;-55
2024/03/19 01:22:58;;;;;;;1.58;0.60;;;;;;;;;;5070660;28;20585;-52
2024/03/19 01:25:24;;;;;;;1.20;0.50;;;;;;;;;;5069999;28;20559;-54
2024/03/19 01:27:51;;;;;;;1.45;0.70;;;;;;;;;;5069803;28;20119;-51
2024/03/19 01:30:16;;;;;;;2.92;0.85;;;;;;;;;;5070067;28;20032;-55
2024/03/19 01:32:42;;;;;;;1.30;0.52;;;;;;;;;;5070092;28;20043;-54
2024/03/19 01:35:07;;;;;;;2.05;0.88;;;;;;;;;;5070151;28;20571;-54
2024/03/19 01:37:33;;;;;;;1.73;0.60;;;;;;;;;;5070153;28;20036;-55
2024/03/19 01:39:58;;;;;;;1.85;0.77;;;;;;;;;;5070203;28;20047;-54
2024/03/19 01:42:23;;;;;;;0.90;0.50;;;;;;;;;;5069851;28;20108;-53
2024/03/19 01:44:50;;;;;;;1.35;0.60;;;;;;;;;;5069954;28;20058;-56
2024/03/19 01:47:17;;;;;;;1.27;0.57;;;;;;;;;;5070199;28;20033;-54
2024/03/19 01:49:43;;;;;;;1.65;0.60;;;;;;;;;;5070448;28;20050;-51
2024/03/19 01:52:08;;;;;;;1.27;0.57;;;;;;;;;;5068659;28;20035;-51
2024/03/19 01:54:34;;;;;;;1.45;0.50;;;;;;;;;;5069812;28;20048;-55
2024/03/19 01:57:00;;;;;;;3.15;1.05;;;;;;;;;;5070266;28;20044;-55
2024/03/19 01:59:25;;;;;;;0.70;0.35;;;;;;;;;;5069601;28;20032;-56
2024/03/19 02:01:50;;;;;;;2.00;0.70;;;;;;;;;;5070285;28;20468;-53
2024/03/19 02:04:15;;;;;;;1.45;0.57;;;;;;;;;;5069955;28;20480;-50
2024/03/19 02:06:41;;;;;;;1.05;0.50;;;;;;;;;;5067316;28;20665;-54
2024/03/19 02:09:08;;;;;;;2.85;0.80;;;;;;;;;;5069645;28;20051;-53
2024/03/19 02:11:35;;;;;;;2.60;0.70;;;;;;;;;;5069719;28;20677;-51
2024/03/19 02:14:01;;;;;;;0.82;0.40;;;;;;;;;;5070049;28;20024;-54
2024/03/19 02:16:26;;;;;;;1.60;0.70;;;;;;;;;;5069860;28;20383;-55
2024/03/19 02:18:59;;;;;;;1.88;0.60;;;;;;;;;;5069332;28;20498;-55
2024/03/19 02:21:28;;;;;;;1.77;0.70;;;;;;;;;;5068020;28;20039;-55
2024/03/19 02:23:57;;;;;;;1.52;0.52;;;;;;;;;;5069024;28;20036;-55
2024/03/19 02:26:23;;;;;;;1.55;0.50;;;;;;;;;;5051662;28;20392;-53
2024/03/19 02:28:49;;;;;;;1.65;0.60;;;;;;;;;;5069528;28;20032;-55
2024/03/19 02:31:14;;;;;;;1.23;0.50;;;;;;;;;;5069539;28;20036;-52
2024/03/19 02:33:40;;;;;;;3.00;0.80;;;;;;;;;;5069768;28;20041;-55
2024/03/19 02:36:06;;;;;;;0.85;0.50;;;;;;;;;;5070006;28;20036;-52
2024/03/19 02:38:31;;;;;;;2.03;0.55;;;;;;;;;;5051357;28;20036;-54
2024/03/19 02:40:57;;;;;;;0.82;0.40;;;;;;;;;;5069693;28;20368;-54
2024/03/19 02:43:22;;;;;;;1.95;0.60;;;;;;;;;;5070072;28;20028;-54
2024/03/19 02:45:47;;;;;;;3.05;0.80;;;;;;;;;;5072720;28;20040;-55
2024/03/19 02:48:14;;;;;;;2.97;0.80;;;;;;;;;;5073089;28;20033;-56
2024/03/19 02:50:39;;;;;;;1.83;0.60;;;;;;;;;;5072908;28;20484;-54
2024/03/19 02:53:05;;;;;;;2.53;0.82;;;;;;;;;;5072792;28;20098;-55
2024/03/19 02:55:31;;;;;;;1.88;0.68;;;;;;;;;;5072402;28;20039;-50
2024/03/19 02:57:56;;;;;;;1.10;0.50;;;;;;;;;;5073173;28;20409;-56
2024/03/19 03:00:22;;;;;;;0.88;0.50;;;;;;;;;;5072840;28;20064;-53
2024/03/19 03:02:47;;;;;;;2.60;0.68;;;;;;;;;;5072642;28;20123;-53
2024/03/19 03:05:12;;;;;;;3.92;0.60;;;;;;;;;;5072920;28;20056;-53
2024/03/19 03:07:38;;;;;;;2.00;0.75;;;;;;;;;;5072248;28;20115;-55
2024/03/19 03:10:03;;;;;;;2.50;1.02;;;;;;;;;;5054578;28;20033;-55
2024/03/19 03:12:29;;;;;;;1.55;0.60;;;;;;;;;;5071317;28;20468;-54
2024/03/19 03:14:54;;;;;;;2.28;0.70;;;;;;;;;;5072927;28;20055;-54
2024/03/19 03:17:20;;;;;;;1.38;0.65;;;;;;;;;;5072573;28;20032;-54
2024/03/19 03:19:45;;;;;;;0.60;0.45;;;;;;;;;;5072093;28;20056;-56
2024/03/19 03:22:10;;;;;;;2.40;0.65;;;;;;;;;;5071274;28;20040;-53
2024/03/19 03:24:36;;;;;;;0.77;0.50;;;;;;;;;;5072175;28;20044;-55
2024/03/19 03:27:01;;;;;;;3.15;0.70;;;;;;;;;;5072370;28;20031;-55
2024/03/19 03:29:26;;;;;;;1.40;0.60;;;;;;;;;;5072045;28;20048;-55
2024/03/19 03:31:52;;;;;;;2.72;0.93;;;;;;;;;;5072611;28;20515;-53
2024/03/19 03:34:17;;;;;;;1.60;0.93;;;;;;;;;;5071847;28;20021;-55
2024/03/19 03:36:44;;;;;;;1.02;0.43;;;;;;;;;;5072521;28;20047;-54
2024/03/19 03:39:10;;;;;;;1.42;0.52;;;;;;;;;;5072162;28;20502;-55
2024/03/19 03:41:35;;;;;;;0.77;0.50;;;;;;;;;;5072043;28;20043;-54
2024/03/19 03:44:00;;;;;;;2.13;0.68;;;;;;;;;;5054267;28;20383;-51
2024/03/19 03:46:26;;;;;;;2.65;0.70;;;;;;;;;;5072532;28;20603;-56
2024/03/19 03:48:51;;;;;;;1.30;0.60;;;;;;;;;;5071870;28;20119;-51
2024/03/19 03:51:16;;;;;;;5.28;0.60;;;;;;;;;;5072051;28;20041;-55
2024/03/19 03:53:42;;;;;;;2.17;0.70;;;;;;;;;;5071930;28;20044;-54
2024/03/19 03:56:07;;;;;;;2.35;0.52;;;;;;;;;;5071728;28;20036;-53
2024/03/19 03:58:32;;;;;;;1.48;0.60;;;;;;;;;;5071948;28;20102;-53
2024/03/19 04:00:58;;;;;;;1.98;0.70;;;;;;;;;;5071666;28;20048;-54
2024/03/19 04:03:23;;;;;;;1.88;0.70;;;;;;;;;;5071839;28;20033;-53
2024/03/19 04:05:48;;;;;;;1.33;0.50;;;;;;;;;;5071061;28;20040;-54
2024/03/19 04:08:14;;;;;;;2.35;0.60;;;;;;;;;;5071492;28;20043;-53
2024/03/19 04:10:39;;;;;;;1.85;0.63;;;;;;;;;;5071783;28;20522;-55
2024/03/19 04:13:05;;;;;;;2.30;0.63;;;;;;;;;;5070444;28;20040;-53
2024/03/19 04:15:31;;;;;;;1.40;0.60;;;;;;;;;;5071703;28;20040;-53
2024/03/19 04:17:56;;;;;;;1.35;0.63;;;;;;;;;;5071488;28;20093;-51
2024/03/19 04:20:22;;;;;;;1.88;0.65;;;;;;;;;;5070725;28;20044;-52
2024/03/19 04:22:47;;;;;;;2.10;0.60;;;;;;;;;;5070251;28;20040;-51
2024/03/19 04:25:13;;;;;;;2.22;0.60;;;;;;;;;;5071494;28;20039;-50
2024/03/19 04:27:38;;;;;;;1.48;0.57;;;;;;;;;;5071502;28;20063;-54
2024/03/19 04:30:05;;;;;;;0.80;0.45;;;;;;;;;;5070967;28;20115;-53
2024/03/19 04:32:31;;;;;;;1.65;0.57;;;;;;;;;;5070851;28;20464;-54
2024/03/19 04:34:56;;;;;;;2.13;0.82;;;;;;;;;;5071248;28;20096;-54
2024/03/19 04:37:21;;;;;;;1.67;0.50;;;;;;;;;;5069308;28;20416;-56
2024/03/19 04:39:47;;;;;;;3.47;0.60;;;;;;;;;;5071204;28;20040;-51
2024/03/19 04:42:17;;;;;;;1.50;0.60;;;;;;;;;;5071368;28;20420;-52
2024/03/19 04:44:43;;;;;;;0.57;0.40;;;;;;;;;;5070450;28;20379;-55
2024/03/19 04:47:08;;;;;;;1.23;0.57;;;;;;;;;;5071027;28;20024;-52
2024/03/19 04:49:34;;;;;;;1.25;0.40;;;;;;;;;;5070525;28;20044;-50
2024/03/19 04:51:59;;;;;;;2.20;0.55;;;;;;;;;;5070596;28;20060;-55
2024/03/19 04:54:24;;;;;;;1.88;0.57;;;;;;;;;;5067804;28;20047;-53
2024/03/19 04:56:50;;;;;;;8.50;0.80;;;;;;;;;;5071121;28;20051;-52
2024/03/19 04:59:15;;;;;;;2.10;0.65;;;;;;;;;;5070929;28;20064;-53
2024/03/19 05:01:42;;;;;;;1.38;0.65;;;;;;;;;;5069781;28;20036;-53
2024/03/19 05:04:08;;;;;;;1.10;0.50;;;;;;;;;;5070006;28;20052;-54
2024/03/19 05:06:33;;;;;;;1.15;0.60;;;;;;;;;;5069599;28;20036;-54
2024/03/19 05:08:58;;;;;;;2.70;0.50;;;;;;;;;;5070158;28;20060;-54
2024/03/19 05:11:24;;;;;;;1.63;0.70;;;;;;;;;;5070437;28;20047;-53
2024/03/19 05:13:49;;;;;;;0.57;0.40;;;;;;;;;;5070661;28;20028;-51
2024/03/19 05:16:14;;;;;;;1.70;0.70;;;;;;;;;;5070372;28;20361;-54
2024/03/19 05:18:40;;;;;;;0.88;0.50;;;;;;;;;;5070126;28;20040;-55
2024/03/19 05:21:05;;;;;;;1.73;0.60;;;;;;;;;;5070090;28;20643;-58
2024/03/19 05:23:30;;;;;;;3.30;0.82;;;;;;;;;;5069859;28;20081;-62
2024/03/19 05:25:56;;;;;;;2.05;0.82;;;;;;;;;;5070722;28;20503;-57
2024/03/19 05:28:22;;;;;;;1.23;0.50;;;;;;;;;;5070324;28;20472;-61
2024/03/19 05:30:47;;;;;;;1.10;0.50;;;;;;;;;;5070297;28;20063;-58
2024/03/19 05:33:13;;;;;;;2.28;0.70;;;;;;;;;;5069673;28;20043;-58
2024/03/19 05:35:38;;;;;;;0.52;0.40;;;;;;;;;;5069959;28;20036;-52
2024/03/19 05:38:03;;;;;;;1.80;0.70;;;;;;;;;;5070036;28;20040;-56
2024/03/19 05:40:30;;;;;;;1.00;0.50;;;;;;;;;;5069999;28;20036;-54
2024/03/19 05:42:55;;;;;;;0.77;0.40;;;;;;;;;;5052377;28;20113;-59
2024/03/19 05:45:20;;;;;;;1.00;0.50;;;;;;;;;;5070262;28;20484;-59
2024/03/19 05:47:46;;;;;;;1.50;0.50;;;;;;;;;;5069122;28;20141;-57
2024/03/19 05:50:13;;;;;;;1.02;0.40;;;;;;;;;;5069547;28;20036;-60
2024/03/19 05:52:39;;;;;;;1.20;0.60;;;;;;;;;;5069967;28;20124;-58
2024/03/19 05:55:06;;;;;;;2.05;0.60;;;;;;;;;;5069888;28;20107;-54
2024/03/19 05:57:31;;;;;;;0.75;0.35;;;;;;;;;;5069337;28;20048;-54
2024/03/19 05:59:56;;;;;;;1.73;0.52;;;;;;;;;;5069405;28;20037;-53
2024/03/19 06:02:22;;;;;;;1.25;0.60;;;;;;;;;;5069729;28;20064;-52
2024/03/19 06:04:47;;;;;;;0.55;0.30;;;;;;;;;;5069085;28;20649;-52
2024/03/19 06:07:12;;;;;;;1.95;0.40;;;;;;;;;;5069448;28;20048;-57
2024/03/19 06:09:44;;;;;;;1.20;0.60;;;;;;;;;;5070317;28;20090;-54
2024/03/19 06:12:10;;;;;;;0.68;0.38;;;;;;;;;;5069581;28;20040;-57
2024/03/19 06:14:35;;;;;;;1.00;0.50;;;;;;;;;;5069336;28;20235;-55
2024/03/19 06:17:01;;;;;;;1.08;0.50;;;;;;;;;;5070140;28;20119;-55
2024/03/19 06:19:26;;;;;;;0.85;0.40;;;;;;;;;;5071522;28;20052;-59
2024/03/19 06:21:52;;;;;;;1.30;0.40;;;;;;;;;;5073600;28;20032;-59
2024/03/19 06:24:17;;;;;;;3.63;0.50;;;;;;;;;;5073428;28;20075;-60
2024/03/19 06:26:43;;;;;;;1.23;0.47;;;;;;;;;;5072270;28;20044;-59
2024/03/19 06:29:08;;;;;;;2.33;0.60;;;;;;;;;;5073859;28;20040;-59
2024/03/19 06:31:34;;;;;;;0.88;0.45;;;;;;;;;;5054898;28;20545;-57
2024/03/19 06:33:59;;;;;;;0.88;0.40;;;;;;;;;;5067324;28;20669;-58
2024/03/19 06:36:24;;;;;;;0.93;0.40;;;;;;;;;;5068318;28;20029;-60
2024/03/19 06:38:50;;;;;;;1.85;0.47;;;;;;;;;;5070670;28;20041;-61
2024/03/19 06:41:15;;;;;;;1.08;0.40;;;;;;;;;;5083843;28;20036;-59
2024/03/19 06:43:41;;;;;;;0.50;0.40;;;;;;;;;;5071696;28;20040;-59
2024/03/19 06:46:06;;;;;;;1.02;0.47;;;;;;;;;;5072017;28;20056;-62
2024/03/19 06:48:32;;;;;;;0.65;0.40;;;;;;;;;;5078297;28;20032;-61
2024/03/19 06:50:57;;;;;;;1.02;0.45;;;;;;;;;;5076539;28;20377;-59
2024/03/19 06:53:24;;;;;;;0.55;0.30;;;;;;;;;;5072987;28;20040;-61
2024/03/19 06:55:49;;;;;;;2.53;0.50;;;;;;;;;;5075476;28;20039;-60
2024/03/19 06:58:15;;;;;;;1.10;0.47;;;;;;;;;;5076302;28;20048;-59
2024/03/19 07:00:40;;;;;;;1.02;0.35;;;;;;;;;;5072238;28;20044;-59
2024/03/19 07:03:06;;;;;;;0.80;0.30;;;;;;;;;;5072337;28;20121;-57
2024/03/19 07:05:32;;;;;;;4.68;0.50;;;;;;;;;;5081104;28;20123;-62
2024/03/19 07:07:58;;;;;;;0.30;0.30;;;;;;;;;;5072296;28;20415;-62
2024/03/19 07:10:24;;;;;;;0.32;0.30;;;;;;;;;;5065970;28;20036;-60
2024/03/19 07:12:49;;;;;;;0.60;0.30;;;;;;;;;;5077385;28;20086;-61
2024/03/19 07:15:15;;;;;;;0.52;0.40;;;;;;;;;;5073090;28;20477;-57
2024/03/19 07:17:41;;;;;;;0.90;0.40;;;;;;;;;;5073407;28;20044;-60
2024/03/19 07:20:09;;;;;;;2.90;0.32;;;;;;;;;;5070419;28;20876;-62
2024/03/19 07:22:41;;;;;;;1.30;0.38;;;;;;;;;;5071031;28;20398;-60
2024/03/19 07:25:08;;;;;;;1.38;0.50;;;;;;;;;;5071575;28;20040;-59
2024/03/19 07:27:36;;;;;;;0.35;0.30;;;;;;;;;;5071273;28;20058;-60
2024/03/19 07:30:04;;;;;;;0.77;0.40;;;;;;;;;;5071916;28;20032;-60
2024/03/19 07:32:29;;;;;;;0.88;0.40;;;;;;;;;;5072379;28;20420;-57
2024/03/19 07:34:55;;;;;;;1.58;0.45;;;;;;;;;;5075087;28;20047;-55
2024/03/19 07:37:20;;;;;;;0.20;0.20;;;;;;;;;;5072968;28;20437;-56
2024/03/19 07:39:45;;;;;;;0.77;0.40;;;;;;;;;;5072589;28;20561;-57
2024/03/19 07:42:11;;;;;;;0.25;0.25;;;;;;;;;;5075247;28;20047;-53
2024/03/19 07:44:38;;;;;;;0.80;0.43;;;;;;;;;;5073011;28;20044;-59
2024/03/19 07:47:07;;;;;;;0.80;0.40;;;;;;;;;;5083351;28;20032;-62
2024/03/19 07:49:33;;;;;;;1.63;0.30;;;;;;;;;;5071940;28;20520;-59
2024/03/19 07:51:58;;;;;;;0.68;0.40;;;;;;;;;;5071998;28;20024;-60
2024/03/19 07:54:27;;;;;;;1.25;0.50;;;;;;;;;;5071711;28;20040;-60
2024/03/19 07:56:53;;;;;;;1.10;0.60;;;;;;;;;;5071477;28;20392;-54
2024/03/19 07:59:18;;;;;;;1.48;0.60;;;;;;;;;;5070856;28;20028;-57
2024/03/19 08:01:44;;;;;;;1.23;0.47;;;;;;;;;;5070786;28;20527;-60
2024/03/19 08:04:09;;;;;;;0.75;0.40;;;;;;;;;;5053460;28;20472;-60
2024/03/19 08:06:35;;;;;;;1.40;0.55;;;;;;;;;;5071047;28;20020;-60
2024/03/19 08:09:00;;;;;;;1.27;0.52;;;;;;;;;;5070419;28;20112;-60
2024/03/19 08:11:26;;;;;;;4.57;0.40;;;;;;;;;;5069946;28;20036;-61
2024/03/19 08:13:51;;;;;;;2.35;0.50;;;;;;;;;;5071731;28;20042;-60
2024/03/19 08:16:16;;;;;;;0.93;0.43;;;;;;;;;;5071703;28;20548;-60
2024/03/19 08:18:42;;;;;;;0.68;0.38;;;;;;;;;;5071305;28;20111;-60
2024/03/19 08:21:08;;;;;;;1.75;0.65;;;;;;;;;;5071383;28;20147;-57
2024/03/19 08:23:35;;;;;;;0.85;0.45;;;;;;;;;;5071385;28;20045;-57
2024/03/19 08:26:00;;;;;;;0.82;0.47;;;;;;;;;;5071316;28;20131;-58
2024/03/19 08:28:26;;;;;;;0.68;0.40;;;;;;;;;;5071084;28;20444;-56
2024/03/19 08:30:51;;;;;;;0.90;0.40;;;;;;;;;;5071628;28;20044;-53
2024/03/19 08:33:16;;;;;;;2.20;0.40;;;;;;;;;;5065203;28;20044;-62
2024/03/19 08:35:42;;;;;;;1.00;0.40;;;;;;;;;;5073209;28;20392;-59
2024/03/19 08:38:07;;;;;;;0.95;0.40;;;;;;;;;;5070441;28;20067;-59
2024/03/19 08:40:33;;;;;;;1.67;0.65;;;;;;;;;;5076249;28;20089;-62
2024/03/19 08:42:59;;;;;;;1.13;0.50;;;;;;;;;;5067828;28;20047;-57
2024/03/19 08:45:25;;;;;;;0.30;0.30;;;;;;;;;;5070239;28;20036;-61
2024/03/19 08:47:53;;;;;;;0.55;0.40;;;;;;;;;;5068691;28;20047;-61
2024/03/19 08:50:19;;;;;;;0.63;0.40;;;;;;;;;;5070421;28;20476;-57
2024/03/19 08:52:44;;;;;;;0.65;0.30;;;;;;;;;;5070364;28;20041;-59
2024/03/19 08:55:12;;;;;;;2.40;0.50;;;;;;;;;;5064252;28;20116;-59
2024/03/19 08:57:37;;;;;;;0.88;0.40;;;;;;;;;;5059714;28;20432;-59
2024/03/19 09:00:06;;;;;;;1.83;0.60;;;;;;;;;;5066611;28;20051;-62
2024/03/19 09:02:31;;;;;;;1.70;0.50;;;;;;;;;;5042905;28;20048;-60
2024/03/19 09:04:57;;;;;;;0.68;0.32;;;;;;;;;;5066407;28;20029;-61
2024/03/19 09:07:22;;;;;;;0.55;0.32;;;;;;;;;;5062548;28;20036;-61
2024/03/19 09:09:48;;;;;;;3.10;0.43;;;;;;;;;;5066144;28;20044;-62
2024/03/19 09:12:13;;;;;;;0.73;0.38;;;;;;;;;;5062385;28;20423;-62
2024/03/19 09:14:38;;;;;;;1.35;0.50;;;;;;;;;;5066342;28;20045;-61
2024/03/19 09:17:04;;;;;;;1.05;0.43;;;;;;;;;;5058461;28;20036;-60
2024/03/19 09:19:40;;;;;;;1.13;0.47;;;;;;;;;;5065503;28;20048;-60
2024/03/19 09:22:06;;;;;;;0.70;0.40;;;;;;;;;;5064624;28;20495;-61
2024/03/19 09:24:31;;;;;;;1.77;0.43;;;;;;;;;;5066651;28;20041;-62
2024/03/19 09:26:56;;;;;;;1.23;0.50;;;;;;;;;;5064562;28;20028;-62
2024/03/19 09:29:22;;;;;;;1.15;0.40;;;;;;;;;;5065263;28;20052;-61
2024/03/19 09:31:47;;;;;;;2.20;0.60;;;;;;;;;;5065795;28;20066;-61
2024/03/19 09:34:13;;;;;;;1.00;0.32;;;;;;;;;;5065860;28;20034;-60
2024/03/19 09:36:38;;;;;;;1.25;0.57;;;;;;;;;;5066063;28;20139;-61
2024/03/19 09:39:10;;;;;;;0.40;0.40;;;;;;;;;;5065592;28;20064;-60
2024/03/19 09:41:38;;;;;;;1.20;0.47;;;;;;;;;;5065688;28;20036;-60
2024/03/19 09:44:03;;;;;;;0.50;0.40;;;;;;;;;;5065206;28;20611;-61
2024/03/19 09:46:29;;;;;;;0.60;0.40;;;;;;;;;;5063327;28;20044;-61
2024/03/19 09:48:54;;;;;;;0.70;0.40;;;;;;;;;;5046940;28;20105;-60
2024/03/19 09:51:21;;;;;;;0.40;0.40;;;;;;;;;;5064265;28;20032;-60
2024/03/19 09:53:46;;;;;;;0.73;0.43;;;;;;;;;;5066078;28;20041;-62
2024/03/19 09:56:21;;;;;;;1.08;0.50;;;;;;;;;;5071855;28;20959;-61
2024/03/19 09:58:52;;;;;;;0.60;0.40;;;;;;;;;;5061282;28;20036;-61
2024/03/19 10:01:17;;;;;;;0.43;0.38;;;;;;;;;;5065079;28;20051;-61
2024/03/19 10:03:43;;;;;;;0.65;0.30;;;;;;;;;;5046351;28;20052;-62
2024/03/19 10:06:18;;;;;;;0.38;0.30;;;;;;;;;;5045903;28;20029;-61
2024/03/19 10:08:44;;;;;;;0.88;0.40;;;;;;;;;;5064632;28;20048;-60
2024/03/19 10:11:11;;;;;;;2.28;0.38;;;;;;;;;;5063257;28;20144;-60
2024/03/19 10:13:36;;;;;;;0.75;0.40;;;;;;;;;;5064396;28;20040;-61
2024/03/19 10:16:02;;;;;;;3.35;0.40;;;;;;;;;;5065327;28;20032;-60
2024/03/19 10:18:28;;;;;;;2.35;0.40;;;;;;;;;;5064847;28;20055;-62
2024/03/19 10:20:57;;;;;;;0.47;0.30;;;;;;;;;;5067368;28;20365;-60
2024/03/19 10:23:23;;;;;;;0.40;0.32;;;;;;;;;;5068659;28;20093;-60
2024/03/19 10:25:52;;;;;;;1.40;0.57;;;;;;;;;;5065303;28;20079;-61
2024/03/19 10:28:19;;;;;;;0.93;0.40;;;;;;;;;;5065250;28;20072;-58
2024/03/19 10:30:47;;;;;;;2.38;0.40;;;;;;;;;;5065228;28;20651;-60
2024/03/19 10:33:13;;;;;;;1.75;0.60;;;;;;;;;;5065839;28;20044;-62
2024/03/19 10:35:41;;;;;;;0.75;0.50;;;;;;;;;;5065439;28;20044;-62
2024/03/19 10:38:08;;;;;;;0.35;0.28;;;;;;;;;;5064977;28;20113;-59
2024/03/19 10:40:34;;;;;;;1.48;0.52;;;;;;;;;;5064578;28;20095;-60
2024/03/19 10:43:00;;;;;;;1.42;0.70;;;;;;;;;;5065401;28;20517;-60
2024/03/19 10:45:28;;;;;;;3.08;0.50;;;;;;;;;;5065138;28;20392;-62
2024/03/19 10:47:55;;;;;;;0.80;0.47;;;;;;;;;;5065674;28;20036;-60
2024/03/19 10:50:21;;;;;;;1.60;0.55;;;;;;;;;;5064536;28;20501;-61
2024/03/19 10:52:55;;;;;;;0.95;0.47;;;;;;;;;;5047244;28;20039;-57
2024/03/19 10:55:21;;;;;;;1.50;0.60;;;;;;;;;;5046513;28;20182;-61
2024/03/19 10:57:46;;;;;;;0.73;0.40;;;;;;;;;;5047200;28;20123;-60
2024/03/19 11:00:19;;;;;;;1.38;0.52;;;;;;;;;;5064855;28;20725;-62
2024/03/19 11:02:49;;;;;;;3.95;0.70;;;;;;;;;;5064434;28;20049;-59
2024/03/19 11:05:17;;;;;;;1.35;0.57;;;;;;;;;;5066357;28;20430;-61
2024/03/19 11:07:50;;;;;;;1.90;0.60;;;;;;;;;;5069101;28;20028;-62
2024/03/19 11:10:26;;;;;;;2.47;0.57;;;;;;;;;;5067776;28;20102;-61
2024/03/19 11:12:58;;;;;;;0.70;0.40;;;;;;;;;;5065368;28;20036;-60
2024/03/19 11:15:24;;;;;;;0.70;0.40;;;;;;;;;;5067797;28;20036;-59
2024/03/19 11:17:49;;;;;;;1.65;0.80;;;;;;;;;;5068285;28;20403;-62
2024/03/19 11:20:18;;;;;;;1.05;0.50;;;;;;;;;;5069358;28;20072;-62
2024/03/19 11:22:47;;;;;;;1.00;0.50;;;;;;;;;;5068706;28;20076;-60
2024/03/19 11:25:14;;;;;;;1.52;0.60;;;;;;;;;;5066181;28;20043;-62
2024/03/19 11:27:47;;;;;;;1.85;0.55;;;;;;;;;;5067520;28;20032;-59
2024/03/19 11:30:13;;;;;;;1.63;0.60;;;;;;;;;;5062023;28;20536;-62
2024/03/19 11:32:40;;;;;;;2.20;0.65;;;;;;;;;;5067823;28;20036;-62
2024/03/19 11:35:17;;;;;;;1.08;0.52;;;;;;;;;;5067730;28;20036;-62
2024/03/19 11:37:45;;;;;;;2.15;0.60;;;;;;;;;;5065312;28;20201;-60
2024/03/19 11:40:12;;;;;;;0.88;0.47;;;;;;;;;;5067540;28;20040;-62
2024/03/19 11:42:37;;;;;;;0.93;0.47;;;;;;;;;;5065611;28;20040;-61
2024/03/19 11:45:03;;;;;;;1.52;0.70;;;;;;;;;;5066056;28;20051;-61
2024/03/19 11:47:28;;;;;;;1.80;0.70;;;;;;;;;;5067475;28;20036;-59
2024/03/19 11:49:54;;;;;;;2.47;0.82;;;;;;;;;;5067312;28;20056;-61
2024/03/19 11:52:19;;;;;;;1.10;0.55;;;;;;;;;;5068730;28;20032;-60
2024/03/19 11:54:45;;;;;;;1.02;0.60;;;;;;;;;;5068656;28;20036;-61
2024/03/19 11:57:17;;;;;;;1.45;0.60;;;;;;;;;;5066554;28;20025;-62
2024/03/19 11:59:42;;;;;;;1.67;0.70;;;;;;;;;;5068726;28;20048;-59
2024/03/19 12:02:09;;;;;;;0.65;0.50;;;;;;;;;;5068164;28;20149;-61
2024/03/19 12:04:35;;;;;;;1.52;0.60;;;;;;;;;;5048821;28;20044;-62
2024/03/19 12:07:00;;;;;;;1.38;0.60;;;;;;;;;;5067098;28;20044;-61
2024/03/19 12:09:27;;;;;;;2.00;0.80;;;;;;;;;;5067994;28;20396;-62
2024/03/19 12:11:53;;;;;;;1.15;0.50;;;;;;;;;;5068080;28;20051;-61
2024/03/19 12:14:23;;;;;;;1.00;0.50;;;;;;;;;;5068046;28;20044;-62
2024/03/19 12:16:49;;;;;;;3.33;0.80;;;;;;;;;;5067180;28;20040;-61
2024/03/19 12:19:16;;;;;;;1.80;0.70;;;;;;;;;;5067504;28;20055;-61
2024/03/19 12:21:43;;;;;;;2.80;0.60;;;;;;;;;;5067309;28;20047;-60
2024/03/19 12:24:12;;;;;;;2.33;0.77;;;;;;;;;;5067670;28;20518;-61
2024/03/19 12:26:43;;;;;;;1.40;0.60;;;;;;;;;;5073101;28;20036;-61
2024/03/19 12:29:13;;;;;;;3.17;0.82;;;;;;;;;;5067249;28;20044;-62
2024/03/19 12:31:49;;;;;;;1.50;0.57;;;;;;;;;;5067234;28;20036;-61
2024/03/19 12:34:37;;;;;;;1.10;0.52;;;;;;;;;;5067642;28;20044;-61
2024/03/19 12:37:04;;;;;;;1.17;0.50;;;;;;;;;;5064688;28;20660;-61
2024/03/19 12:39:29;;;;;;;1.25;0.55;;;;;;;;;;5067254;28;20110;-61
2024/03/19 12:41:54;;;;;;;1.45;0.60;;;;;;;;;;5068146;28;20523;-61
2024/03/19 12:44:20;;;;;;;1.73;0.68;;;;;;;;;;5066501;28;20515;-62
2024/03/19 12:46:45;;;;;;;0.82;0.50;;;;;;;;;;5066658;28;20048;-60
2024/03/19 12:49:10;;;;;;;1.75;0.70;;;;;;;;;;5067371;28;20487;-62
2024/03/19 12:51:36;;;;;;;2.22;0.60;;;;;;;;;;5064519;28;20060;-61
2024/03/19 12:54:01;;;;;;;1.35;0.52;;;;;;;;;;5061278;28;20036;-61
2024/03/19 12:56:26;;;;;;;2.15;0.70;;;;;;;;;;5062881;28;20032;-61
2024/03/19 12:58:52;;;;;;;1.35;0.55;;;;;;;;;;5067294;28;20036;-61
2024/03/19 13:01:18;;;;;;;1.50;0.50;;;;;;;;;;5065896;28;20094;-60
2024/03/19 13:03:43;;;;;;;1.25;0.50;;;;;;;;;;5062175;28;20041;-61
2024/03/19 13:06:09;;;;;;;1.15;0.43;;;;;;;;;;5065516;28;20365;-60
2024/03/19 13:08:34;;;;;;;1.30;0.50;;;;;;;;;;5066071;28;20063;-61
2024/03/19 13:11:00;;;;;;;0.90;0.50;;;;;;;;;;5062381;28;20492;-62
2024/03/19 13:13:25;;;;;;;0.98;0.40;;;;;;;;;;5065610;28;20111;-59
2024/03/19 13:15:51;;;;;;;0.98;0.40;;;;;;;;;;5066462;28;20032;-60
2024/03/19 13:18:16;;;;;;;0.95;0.50;;;;;;;;;;5058349;28;20400;-62
2024/03/19 13:20:42;;;;;;;0.73;0.50;;;;;;;;;;5065655;28;20041;-61
2024/03/19 13:23:07;;;;;;;0.88;0.50;;;;;;;;;;5065883;28;20454;-60
2024/03/19 13:25:36;;;;;;;0.63;0.40;;;;;;;;;;5052833;28;20824;-62
2024/03/19 13:28:02;;;;;;;1.58;0.70;;;;;;;;;;5059589;28;20480;-60
2024/03/19 13:30:27;;;;;;;1.38;0.55;;;;;;;;;;5059716;28;20050;-61
2024/03/19 13:32:55;;;;;;;0.32;0.32;;;;;;;;;;5065507;28;20687;-62
2024/03/19 13:35:21;;;;;;;1.08;0.60;;;;;;;;;;5065850;28;20041;-62
2024/03/19 13:37:47;;;;;;;1.23;0.40;;;;;;;;;;5066362;28;20037;-61
2024/03/19 13:40:15;;;;;;;0.45;0.38;;;;;;;;;;5065914;28;20106;-61
2024/03/19 13:42:40;;;;;;;1.08;0.50;;;;;;;;;;5065619;28;20044;-62
2024/03/19 13:45:07;;;;;;;0.77;0.55;;;;;;;;;;5065873;28;20043;-60
2024/03/19 13:47:33;;;;;;;1.77;0.65;;;;;;;;;;5067333;28;20040;-61
2024/03/19 13:49:58;;;;;;;1.38;0.60;;;;;;;;;;5061082;28;20210;-60
2024/03/19 13:52:23;;;;;;;1.80;0.63;;;;;;;;;;5066354;28;20032;-62
2024/03/19 13:54:48;;;;;;;1.15;0.50;;;;;;;;;;5063422;28;20037;-62
2024/03/19 13:57:14;;;;;;;1.58;0.50;;;;;;;;;;5064880;28;20074;-60
2024/03/19 13:59:43;;;;;;;1.60;0.60;;;;;;;;;;5060563;28;20037;-62
2024/03/19 14:02:09;;;;;;;1.35;0.43;;;;;;;;;;5062089;28;20037;-61
2024/03/19 14:04:34;;;;;;;0.77;0.47;;;;;;;;;;5065333;28;20510;-62
2024/03/19 14:07:01;;;;;;;1.50;0.60;;;;;;;;;;5066646;28;20043;-62
2024/03/19 14:09:27;;;;;;;1.73;0.60;;;;;;;;;;5066103;28;20153;-62
2024/03/19 14:11:54;;;;;;;1.90;0.60;;;;;;;;;;5065765;28;20028;-61
2024/03/19 14:14:20;;;;;;;1.52;0.55;;;;;;;;;;5066140;28;20041;-62
2024/03/19 14:16:45;;;;;;;1.00;0.50;;;;;;;;;;5057435;28;20032;-62
2024/03/19 14:19:14;;;;;;;3.03;0.68;;;;;;;;;;5065196;28;20132;-61
2024/03/19 14:21:40;;;;;;;1.77;0.70;;;;;;;;;;5057711;28;20102;-62
2024/03/19 14:24:05;;;;;;;3.13;0.50;;;;;;;;;;5065308;28;20044;-62
2024/03/19 14:26:31;;;;;;;1.60;0.57;;;;;;;;;;5065149;28;20024;-62
2024/03/19 14:28:57;;;;;;;2.30;0.70;;;;;;;;;;5065536;28;20040;-62
2024/03/19 14:31:22;;;;;;;3.05;0.40;;;;;;;;;;5065270;28;20415;-62
2024/03/19 14:33:48;;;;;;;1.35;0.50;;;;;;;;;;5066401;28;20106;-61
2024/03/19 14:36:13;;;;;;;1.83;0.70;;;;;;;;;;5065441;28;20965;-62